Time;durP1;ratioP1;P1;durP2;ratioP2;P2;SDS_P1;SDS_P2;PMS_P1;PMS_P2;Temp;Humidity;BMP_temperature;BMP_pressure;BME280_temperature;BME280_humidity;BME280_pressure;Samples;Min_cycle;Max_cycle;Signal;HPM_P1;HPM_P2
2022/08/03 00:01:43;;;;;;;6.75;4.57;;;20.10;99.90;;;;;;4992480;28;20210;-87
2022/08/03 00:04:10;;;;;;;4.82;4.35;;;20.00;99.90;;;;;;4993159;28;20191;-87
2022/08/03 00:06:37;;;;;;;5.78;4.40;;;20.10;99.90;;;;;;4993423;28;20258;-87
2022/08/03 00:09:04;;;;;;;4.80;4.40;;;20.00;99.90;;;;;;4993076;28;20207;-87
2022/08/03 00:11:30;;;;;;;4.90;4.50;;;20.00;99.90;;;;;;4992694;28;20200;-87
2022/08/03 00:13:56;;;;;;;4.72;4.35;;;19.90;99.90;;;;;;4992835;28;20188;-87
2022/08/03 00:16:23;;;;;;;4.70;4.32;;;19.80;99.90;;;;;;4992777;28;20180;-88
2022/08/03 00:18:50;;;;;;;4.95;4.53;;;19.80;99.90;;;;;;4976626;28;20191;-87
2022/08/03 00:21:16;;;;;;;4.60;4.20;;;19.70;99.90;;;;;;4976085;28;20288;-87
2022/08/03 00:23:42;;;;;;;4.95;4.55;;;19.70;99.90;;;;;;4976496;28;20334;-87
2022/08/03 00:26:08;;;;;;;4.90;4.50;;;19.60;99.90;;;;;;4976159;28;20266;-87
2022/08/03 00:28:34;;;;;;;5.28;4.78;;;19.50;99.90;;;;;;4976147;28;20634;-87
2022/08/03 00:31:00;;;;;;;5.45;4.97;;;19.40;99.90;;;;;;4976058;28;20231;-87
2022/08/03 00:33:26;;;;;;;5.40;4.90;;;19.30;99.90;;;;;;4976182;28;20180;-87
2022/08/03 00:35:51;;;;;;;5.65;4.65;;;19.20;99.90;;;;;;4976668;28;20230;-87
2022/08/03 00:38:18;;;;;;;5.20;4.40;;;19.20;99.90;;;;;;4976117;28;20226;-87
2022/08/03 00:40:45;;;;;;;5.80;4.88;;;19.10;99.90;;;;;;4976561;28;20266;-87
2022/08/03 00:43:11;;;;;;;4.75;4.10;;;19.10;99.90;;;;;;4976523;28;20188;-87
2022/08/03 00:45:39;;;;;;;5.93;4.82;;;19.10;99.90;;;;;;4976665;28;20203;-87
2022/08/03 00:48:07;;;;;;;5.00;4.50;;;19.10;99.90;;;;;;4976588;28;20191;-87
2022/08/03 00:50:37;;;;;;;5.10;4.68;;;19.10;99.90;;;;;;4975746;28;20208;-86
2022/08/03 00:53:06;;;;;;;5.00;4.60;;;19.10;99.90;;;;;;4973014;28;20180;-87
2022/08/03 00:55:32;;;;;;;6.43;5.15;;;19.10;99.90;;;;;;4956720;28;20188;-86
2022/08/03 00:58:03;;;;;;;5.00;4.60;;;19.10;99.90;;;;;;4956699;28;20192;-87
2022/08/03 01:00:29;;;;;;;4.93;4.53;;;19.00;99.90;;;;;;4956550;28;20216;-87
2022/08/03 01:02:55;;;;;;;6.30;4.85;;;19.00;99.90;;;;;;4965393;28;20183;-87
2022/08/03 01:05:21;;;;;;;5.68;4.68;;;18.80;99.90;;;;;;4975767;28;20239;-87
2022/08/03 01:08:03;;;;;;;5.35;4.85;;;18.80;99.90;;;;;;4975728;28;20186;-87
2022/08/03 01:11:01;;;;;;;5.45;4.95;;;18.80;99.90;;;;;;4975421;28;20203;-87
2022/08/03 01:13:38;;;;;;;5.28;4.88;;;18.80;99.90;;;;;;4994380;28;20168;-87
2022/08/03 01:16:07;;;;;;;5.15;4.70;;;18.80;99.90;;;;;;4976332;28;20183;-87
2022/08/03 01:19:01;;;;;;;5.43;5.03;;;18.80;99.90;;;;;;4975717;28;20226;-87
2022/08/03 01:21:49;;;;;;;5.72;5.05;;;18.80;99.90;;;;;;4974934;28;20216;-87
2022/08/03 01:24:35;;;;;;;5.88;5.38;;;18.80;99.90;;;;;;4991999;28;20191;-87
2022/08/03 01:27:17;;;;;;;4.63;4.22;;;18.80;99.90;;;;;;4991732;28;20211;-87
2022/08/03 01:30:06;;;;;;;5.32;4.90;;;18.80;99.90;;;;;;4991677;28;20184;-87
2022/08/03 01:32:55;;;;;;;5.07;4.68;;;18.70;99.90;;;;;;4991780;28;20207;-87
2022/08/03 01:35:49;;;;;;;6.65;5.50;;;18.80;99.90;;;;;;4991825;28;20573;-87
2022/08/03 01:38:28;;;;;;;5.57;5.07;;;18.70;99.90;;;;;;5004057;28;20180;-87
2022/08/03 01:40:55;;;;;;;8.45;5.15;;;18.70;99.90;;;;;;4991187;28;20275;-87
2022/08/03 01:43:27;;;;;;;5.35;4.88;;;18.70;99.90;;;;;;4975687;28;20184;-88
2022/08/03 01:45:55;;;;;;;5.22;4.72;;;18.70;99.90;;;;;;4975255;28;20196;-87
2022/08/03 01:48:22;;;;;;;4.90;4.50;;;18.80;99.90;;;;;;4975153;28;20180;-87
2022/08/03 01:50:50;;;;;;;5.60;5.10;;;18.80;99.90;;;;;;4975016;28;20219;-87
2022/08/03 01:53:17;;;;;;;5.35;4.93;;;18.80;99.90;;;;;;4991608;28;20176;-87
2022/08/03 01:55:46;;;;;;;5.20;4.68;;;18.80;99.90;;;;;;4991786;28;20184;-87
2022/08/03 01:58:15;;;;;;;4.97;4.57;;;18.80;99.90;;;;;;4991648;28;20195;-87
2022/08/03 02:00:43;;;;;;;6.13;4.88;;;18.80;99.90;;;;;;4991010;28;20234;-87
2022/08/03 02:03:12;;;;;;;4.95;4.45;;;18.70;99.90;;;;;;4991714;28;20184;-87
2022/08/03 02:05:39;;;;;;;5.40;4.90;;;18.60;99.90;;;;;;4991318;28;20219;-87
2022/08/03 02:08:09;;;;;;;6.07;5.53;;;18.60;99.90;;;;;;4991624;28;20180;-87
2022/08/03 02:10:39;;;;;;;5.45;4.95;;;18.30;99.90;;;;;;4990828;28;20287;-87
2022/08/03 02:13:07;;;;;;;5.43;4.93;;;18.20;99.90;;;;;;4991067;28;20240;-87
2022/08/03 02:15:36;;;;;;;4.88;4.47;;;18.20;99.90;;;;;;4991444;28;20184;-87
2022/08/03 02:18:06;;;;;;;5.43;4.93;;;18.20;99.90;;;;;;4991109;28;20266;-87
2022/08/03 02:20:35;;;;;;;6.03;5.07;;;18.20;99.90;;;;;;4994340;28;20215;-87
2022/08/03 02:23:01;;;;;;;5.38;4.88;;;18.20;99.90;;;;;;4994979;28;20195;-87
2022/08/03 02:25:29;;;;;;;6.88;5.47;;;18.20;99.90;;;;;;4994731;28;20208;-86
2022/08/03 02:27:58;;;;;;;7.15;5.95;;;18.20;99.90;;;;;;4994699;28;20183;-87
2022/08/03 02:30:37;;;;;;;6.30;5.70;;;18.10;99.90;;;;;;4994763;28;20172;-87
2022/08/03 02:33:06;;;;;;;5.80;5.30;;;18.20;99.90;;;;;;4995241;28;20171;-87
2022/08/03 02:35:34;;;;;;;5.90;5.32;;;18.10;99.90;;;;;;4993777;28;20517;-87
2022/08/03 02:38:03;;;;;;;5.45;4.75;;;18.20;99.90;;;;;;4978448;28;20467;-87
2022/08/03 02:40:31;;;;;;;6.07;5.10;;;18.10;99.90;;;;;;4978342;28;20289;-87
2022/08/03 02:43:02;;;;;;;5.47;4.97;;;18.10;99.90;;;;;;4978189;28;20192;-86
2022/08/03 02:45:31;;;;;;;7.40;5.73;;;18.00;99.90;;;;;;4978339;28;20214;-87
2022/08/03 02:48:02;;;;;;;7.20;5.33;;;18.00;99.90;;;;;;4977925;28;20218;-87
2022/08/03 02:50:29;;;;;;;5.97;5.43;;;17.90;99.90;;;;;;4977760;28;20206;-87
2022/08/03 02:52:57;;;;;;;7.03;5.90;;;17.90;99.90;;;;;;4978067;28;20193;-87
2022/08/03 02:55:25;;;;;;;6.03;5.53;;;17.80;99.90;;;;;;4977909;28;20188;-87
2022/08/03 02:57:53;;;;;;;7.07;5.63;;;17.70;99.90;;;;;;4978005;28;20241;-87
2022/08/03 03:00:19;;;;;;;6.00;5.43;;;17.80;99.90;;;;;;4977341;28;20180;-87
2022/08/03 03:02:46;;;;;;;6.15;5.40;;;17.80;99.90;;;;;;4978077;28;20178;-87
2022/08/03 03:05:12;;;;;;;5.72;5.18;;;17.80;99.90;;;;;;4977631;28;20203;-87
2022/08/03 03:07:39;;;;;;;6.47;5.88;;;17.80;99.90;;;;;;4977902;28;20182;-87
2022/08/03 03:10:07;;;;;;;6.90;6.27;;;17.70;99.90;;;;;;4980505;28;20275;-86
2022/08/03 03:12:35;;;;;;;7.10;5.77;;;17.70;99.90;;;;;;4980567;28;20187;-87
2022/08/03 03:15:02;;;;;;;5.60;5.10;;;17.60;99.90;;;;;;4977860;28;20187;-87
2022/08/03 03:17:30;;;;;;;5.87;5.27;;;17.60;99.90;;;;;;4977819;28;20182;-87
2022/08/03 03:19:58;;;;;;;5.70;5.10;;;17.60;99.90;;;;;;4993522;28;20182;-87
2022/08/03 03:22:26;;;;;;;5.53;5.03;;;17.40;99.90;;;;;;4993560;28;20301;-86
2022/08/03 03:24:53;;;;;;;6.07;5.57;;;17.30;99.90;;;;;;4992865;28;20192;-87
2022/08/03 03:27:20;;;;;;;5.90;5.40;;;17.30;99.90;;;;;;4993140;28;20211;-87
2022/08/03 03:29:47;;;;;;;6.30;5.60;;;17.30;99.90;;;;;;4993104;28;20179;-87
2022/08/03 03:32:13;;;;;;;5.90;5.40;;;17.30;99.90;;;;;;4976741;28;20204;-87
2022/08/03 03:34:41;;;;;;;7.10;5.80;;;17.30;99.90;;;;;;4977159;28;20207;-87
2022/08/03 03:37:07;;;;;;;5.93;5.33;;;17.30;99.90;;;;;;4977190;28;20184;-87
2022/08/03 03:39:35;;;;;;;7.27;5.60;;;17.30;99.90;;;;;;4976990;28;20283;-87
2022/08/03 03:42:02;;;;;;;6.73;6.10;;;17.30;99.90;;;;;;4976968;28;20271;-87
2022/08/03 03:44:29;;;;;;;6.57;5.97;;;17.30;99.90;;;;;;4976953;28;20288;-87
2022/08/03 03:46:58;;;;;;;6.43;5.93;;;17.30;99.90;;;;;;4977034;28;20222;-87
2022/08/03 03:49:25;;;;;;;5.77;5.27;;;17.30;99.90;;;;;;4977417;28;20184;-87
2022/08/03 03:51:55;;;;;;;6.80;6.10;;;17.30;99.90;;;;;;4976842;28;20200;-87
2022/08/03 03:54:21;;;;;;;7.13;5.70;;;17.40;99.90;;;;;;4976836;28;20591;-86
2022/08/03 03:56:47;;;;;;;6.37;5.77;;;17.40;99.90;;;;;;4977060;28;20188;-87
2022/08/03 03:59:13;;;;;;;6.90;5.80;;;17.30;99.90;;;;;;4977116;28;20183;-87
2022/08/03 04:01:40;;;;;;;6.10;5.60;;;17.30;99.90;;;;;;4975588;28;20210;-86
2022/08/03 04:12:25;;;;;;;8.57;6.73;;;17.30;99.90;;;;;;4992688;28;20206;-87
2022/08/03 04:14:54;;;;;;;7.23;6.17;;;17.20;99.90;;;;;;4976919;28;20191;-87
2022/08/03 04:17:25;;;;;;;6.57;5.70;;;17.30;99.90;;;;;;4976814;28;20191;-87
2022/08/03 04:19:53;;;;;;;6.77;5.67;;;17.30;99.90;;;;;;4976531;28;20261;-87
2022/08/03 04:22:24;;;;;;;6.07;5.57;;;17.20;99.90;;;;;;4975825;28;20207;-86
2022/08/03 04:24:54;;;;;;;7.57;6.67;;;17.30;99.90;;;;;;4975870;28;20184;-87
2022/08/03 04:27:23;;;;;;;6.40;5.80;;;17.30;99.90;;;;;;4975519;28;20212;-86
2022/08/03 04:29:51;;;;;;;6.57;5.97;;;17.30;99.90;;;;;;4992636;28;20234;-87
2022/08/03 04:32:19;;;;;;;6.23;5.73;;;17.30;99.90;;;;;;4976289;28;20282;-86
2022/08/03 04:34:46;;;;;;;6.73;6.13;;;17.30;99.90;;;;;;4976382;28;20184;-87
2022/08/03 04:37:17;;;;;;;6.23;5.63;;;17.30;99.90;;;;;;4976602;28;20270;-86
2022/08/03 04:39:48;;;;;;;7.50;6.30;;;17.40;99.90;;;;;;4964529;28;20207;-87
2022/08/03 04:42:14;;;;;;;6.90;6.07;;;17.50;99.90;;;;;;4975966;28;20629;-87
2022/08/03 04:44:44;;;;;;;6.70;6.00;;;17.50;99.90;;;;;;4979345;28;20179;-87
2022/08/03 04:47:23;;;;;;;6.47;5.90;;;17.50;99.90;;;;;;5005591;28;20214;-86
2022/08/03 04:50:02;;;;;;;8.27;6.37;;;17.60;99.90;;;;;;4993052;28;20175;-87
2022/08/03 04:52:44;;;;;;;8.23;6.20;;;17.60;99.90;;;;;;4987484;28;20290;-86
2022/08/03 04:55:10;;;;;;;7.13;6.07;;;17.60;99.90;;;;;;4999962;28;20250;-86
2022/08/03 04:57:36;;;;;;;6.57;5.97;;;17.70;99.90;;;;;;4994896;28;20239;-86
2022/08/03 05:00:05;;;;;;;6.83;5.97;;;17.70;99.90;;;;;;5010880;28;20191;-87
2022/08/03 05:02:33;;;;;;;7.27;6.43;;;17.80;99.90;;;;;;5011361;28;20179;-86
2022/08/03 05:05:00;;;;;;;6.90;6.30;;;17.80;99.90;;;;;;4994879;28;20207;-86
2022/08/03 05:07:26;;;;;;;7.20;6.50;;;17.80;99.90;;;;;;5003719;28;20251;-86
2022/08/03 05:09:54;;;;;;;7.73;6.93;;;17.80;99.90;;;;;;5005278;28;20179;-86
2022/08/03 05:12:20;;;;;;;6.90;6.40;;;17.80;99.90;;;;;;5008302;28;20233;-86
2022/08/03 05:14:46;;;;;;;7.67;6.97;;;17.90;99.90;;;;;;4975912;28;20219;-85
2022/08/03 05:17:11;;;;;;;6.77;6.17;;;18.00;99.90;;;;;;4992571;28;20198;-86
2022/08/03 05:19:37;;;;;;;7.40;6.70;;;18.00;99.90;;;;;;4977054;28;20200;-86
2022/08/03 05:22:03;;;;;;;7.77;6.97;;;18.10;99.90;;;;;;4990455;28;20211;-86
2022/08/03 05:24:29;;;;;;;8.20;7.40;;;18.10;99.90;;;;;;4976939;28;20208;-85
2022/08/03 05:26:55;;;;;;;7.25;6.63;;;18.20;99.90;;;;;;4975963;28;20358;-86
2022/08/03 05:29:21;;;;;;;7.50;6.78;;;18.30;99.90;;;;;;4976259;28;20180;-88
2022/08/03 05:31:47;;;;;;;6.85;6.03;;;18.40;99.90;;;;;;4975909;28;20223;-86
2022/08/03 05:34:13;;;;;;;7.45;6.78;;;18.40;99.90;;;;;;4975734;28;20179;-86
2022/08/03 05:36:39;;;;;;;7.10;6.40;;;18.60;99.90;;;;;;4975438;28;20194;-84
2022/08/03 05:39:05;;;;;;;6.70;5.93;;;18.70;99.90;;;;;;4975632;28;20218;-87
2022/08/03 05:41:30;;;;;;;7.18;6.47;;;18.70;99.90;;;;;;4975609;28;20199;-86
2022/08/03 05:43:56;;;;;;;6.43;5.93;;;18.70;99.90;;;;;;4975904;28;20215;-87
2022/08/03 05:46:22;;;;;;;6.72;6.13;;;18.90;99.90;;;;;;4975831;28;20222;-87
2022/08/03 05:48:56;;;;;;;6.60;5.90;;;18.90;99.90;;;;;;4975670;28;20176;-89
2022/08/03 05:51:22;;;;;;;8.10;6.10;;;19.00;99.90;;;;;;4956337;28;20208;-89
2022/08/03 05:53:48;;;;;;;6.15;5.45;;;19.10;99.90;;;;;;4975764;28;20180;-87
2022/08/03 05:56:14;;;;;;;6.70;6.03;;;19.20;99.90;;;;;;4978388;28;20200;-87
2022/08/03 05:58:40;;;;;;;6.53;5.80;;;19.30;99.90;;;;;;4978848;28;20184;-87
2022/08/03 06:01:07;;;;;;;6.80;6.03;;;19.40;99.90;;;;;;4978684;28;20214;-87
2022/08/03 06:03:33;;;;;;;6.68;6.07;;;19.40;99.90;;;;;;4995320;28;20184;-87
2022/08/03 06:05:59;;;;;;;7.03;6.38;;;19.50;99.90;;;;;;4978836;28;20208;-87
2022/08/03 06:08:25;;;;;;;7.78;6.63;;;19.60;99.90;;;;;;4994347;28;20218;-87
2022/08/03 06:10:51;;;;;;;6.88;6.28;;;19.70;99.90;;;;;;4995099;28;20237;-87
2022/08/03 06:13:16;;;;;;;7.15;6.45;;;19.70;99.90;;;;;;4978661;28;20238;-87
2022/08/03 06:15:42;;;;;;;7.88;6.95;;;19.80;99.90;;;;;;4995067;28;20266;-87
2022/08/03 06:18:08;;;;;;;7.40;6.35;;;19.90;99.90;;;;;;4978774;28;20176;-87
2022/08/03 06:20:34;;;;;;;6.80;6.20;;;20.10;99.90;;;;;;4978287;28;20219;-88
2022/08/03 06:23:00;;;;;;;7.20;6.03;;;20.20;99.90;;;;;;4979746;28;20259;-87
2022/08/03 06:25:26;;;;;;;6.63;5.93;;;20.30;99.90;;;;;;4979536;28;20196;-87
2022/08/03 06:27:52;;;;;;;7.10;6.50;;;20.50;99.90;;;;;;4980048;28;20175;-87
2022/08/03 06:30:21;;;;;;;7.03;6.43;;;20.60;99.90;;;;;;4978685;28;20352;-88
2022/08/03 06:32:48;;;;;;;7.28;6.50;;;20.70;99.90;;;;;;4978292;28;20298;-87
2022/08/03 06:35:15;;;;;;;6.80;5.95;;;20.80;99.90;;;;;;5000178;28;20224;-88
2022/08/03 06:37:49;;;;;;;9.93;6.53;;;20.90;99.90;;;;;;4994837;28;20175;-87
2022/08/03 06:40:18;;;;;;;7.93;6.10;;;21.10;99.90;;;;;;4978277;28;20219;-87
2022/08/03 06:42:44;;;;;;;6.57;5.97;;;21.20;99.90;;;;;;4978525;28;20199;-87
2022/08/03 06:45:11;;;;;;;6.60;6.00;;;21.30;99.90;;;;;;4978384;28;20262;-87
2022/08/03 06:47:38;;;;;;;5.97;5.38;;;21.50;99.90;;;;;;4978429;28;20556;-88
2022/08/03 06:50:05;;;;;;;6.38;5.78;;;21.60;99.90;;;;;;4978041;28;20172;-88
2022/08/03 06:52:32;;;;;;;6.90;6.18;;;21.80;99.90;;;;;;4978151;28;20188;-88
2022/08/03 06:54:58;;;;;;;6.95;6.25;;;21.90;99.90;;;;;;4978006;28;20635;-87
2022/08/03 06:57:24;;;;;;;6.47;5.82;;;22.10;99.90;;;;;;4980408;28;20213;-87
2022/08/03 06:59:55;;;;;;;6.55;5.80;;;22.20;99.90;;;;;;4997473;28;20231;-89
2022/08/03 07:02:21;;;;;;;6.35;5.75;;;22.40;99.90;;;;;;4978496;28;20254;-88
2022/08/03 07:04:48;;;;;;;7.38;6.55;;;22.40;99.90;;;;;;4983819;28;20226;-88
2022/08/03 07:07:16;;;;;;;5.70;5.20;;;22.50;99.90;;;;;;5014911;28;20220;-89
2022/08/03 07:09:43;;;;;;;5.82;5.32;;;22.70;99.90;;;;;;4995069;28;20212;-89
2022/08/03 07:12:16;;;;;;;5.70;4.80;;;22.80;99.90;;;;;;4995466;28;20200;-88
2022/08/03 07:14:46;;;;;;;7.05;5.55;;;22.90;99.90;;;;;;5011886;28;20251;-89
2022/08/03 07:17:15;;;;;;;6.63;5.93;;;23.10;99.90;;;;;;5010276;28;20195;-89
2022/08/03 07:19:41;;;;;;;6.13;5.63;;;23.30;99.90;;;;;;4994197;28;20230;-89
2022/08/03 07:22:07;;;;;;;7.82;5.53;;;23.30;99.90;;;;;;4993704;28;20299;-88
2022/08/03 07:24:33;;;;;;;6.22;5.60;;;23.40;99.90;;;;;;4994423;28;20263;-88
2022/08/03 07:27:00;;;;;;;6.63;5.50;;;23.50;99.90;;;;;;4994138;28;20211;-88
2022/08/03 07:29:29;;;;;;;5.82;5.32;;;23.60;99.90;;;;;;4993831;28;20229;-87
2022/08/03 07:31:56;;;;;;;6.55;5.28;;;23.70;99.90;;;;;;5005842;28;20203;-88
2022/08/03 07:34:22;;;;;;;6.50;5.10;;;23.80;99.90;;;;;;4995129;28;20270;-89
2022/08/03 07:36:51;;;;;;;4.95;4.47;;;23.90;99.90;;;;;;4974730;28;20200;-88
2022/08/03 07:39:17;;;;;;;5.45;5.05;;;23.90;99.90;;;;;;4991287;28;20193;-89
2022/08/03 07:41:43;;;;;;;5.15;4.60;;;24.10;99.90;;;;;;4991332;28;20219;-88
2022/08/03 07:44:09;;;;;;;6.03;4.45;;;24.10;99.90;;;;;;4993743;28;20244;-85
2022/08/03 07:46:34;;;;;;;4.55;3.92;;;24.20;99.90;;;;;;5001358;28;20239;-88
2022/08/03 07:49:04;;;;;;;5.10;4.60;;;24.30;99.90;;;;;;5005361;28;20178;-88
2022/08/03 07:51:30;;;;;;;5.00;4.60;;;24.50;99.90;;;;;;4976143;28;20201;-88
2022/08/03 07:53:56;;;;;;;4.85;4.45;;;24.60;99.90;;;;;;5005967;28;20175;-88
2022/08/03 07:56:26;;;;;;;4.57;4.18;;;24.70;99.90;;;;;;4985039;28;20183;-88
2022/08/03 07:58:53;;;;;;;5.30;4.80;;;25.00;99.90;;;;;;4996680;28;20185;-87
2022/08/03 08:01:19;;;;;;;5.85;4.50;;;25.10;99.90;;;;;;4996550;28;20214;-89
2022/08/03 08:03:46;;;;;;;4.80;4.30;;;25.20;99.90;;;;;;4981540;28;20233;-88
2022/08/03 08:06:12;;;;;;;4.65;4.13;;;25.30;99.90;;;;;;4977413;28;20266;-87
2022/08/03 08:08:38;;;;;;;5.03;4.20;;;25.40;99.90;;;;;;4989032;28;20179;-88
2022/08/03 08:11:05;;;;;;;4.72;4.32;;;25.50;99.90;;;;;;4991260;28;20231;-88
2022/08/03 08:13:31;;;;;;;4.22;3.83;;;25.50;99.90;;;;;;4974787;28;20185;-89
2022/08/03 08:15:57;;;;;;;4.03;3.38;;;25.60;99.90;;;;;;4974270;28;20181;-88
2022/08/03 08:18:23;;;;;;;3.65;3.35;;;25.70;99.90;;;;;;4974130;28;20184;-89
2022/08/03 08:20:50;;;;;;;4.65;4.07;;;25.90;99.90;;;;;;4975253;28;20212;-88
2022/08/03 08:23:25;;;;;;;4.28;3.88;;;26.10;99.90;;;;;;4984478;28;20290;-85
2022/08/03 08:25:52;;;;;;;4.07;3.50;;;26.30;99.90;;;;;;4977810;28;20250;-90
2022/08/03 08:28:20;;;;;;;3.42;3.10;;;26.50;99.90;;;;;;4981606;28;20207;-89
2022/08/03 08:30:46;;;;;;;2.90;2.70;;;26.70;99.90;;;;;;4976956;28;20200;-89
2022/08/03 08:33:12;;;;;;;3.70;3.00;;;26.90;99.90;;;;;;4977122;28;20183;-90
2022/08/03 08:35:39;;;;;;;6.25;2.78;;;27.20;99.90;;;;;;4976873;28;20184;-89
2022/08/03 08:38:21;;;;;;;2.55;2.35;;;27.40;99.90;;;;;;4974223;28;20191;-90
2022/08/03 08:40:50;;;;;;;3.78;2.30;;;27.60;99.90;;;;;;4987719;28;20238;-89
2022/08/03 08:43:26;;;;;;;4.03;2.47;;;27.80;99.90;;;;;;4977453;28;20184;-90
2022/08/03 08:46:21;;;;;;;2.50;2.30;;;28.10;99.90;;;;;;4977808;28;20701;-89
2022/08/03 08:48:48;;;;;;;2.40;2.20;;;28.10;99.90;;;;;;4976762;28;20183;-90
2022/08/03 08:51:18;;;;;;;2.80;2.33;;;28.20;99.90;;;;;;4977203;28;20242;-90
2022/08/03 08:53:49;;;;;;;2.42;2.22;;;28.20;99.90;;;;;;4993041;28;20279;-90
2022/08/03 08:56:25;;;;;;;3.67;2.08;;;28.30;99.90;;;;;;4993027;28;20205;-90
2022/08/03 08:58:57;;;;;;;2.72;2.22;;;28.30;99.90;;;;;;4957617;28;20176;-90
2022/08/03 09:01:23;;;;;;;2.35;1.98;;;28.40;99.90;;;;;;4992837;28;20196;-90
2022/08/03 09:04:06;;;;;;;2.40;2.20;;;28.60;99.90;;;;;;4985763;28;20195;-90
2022/08/03 09:06:39;;;;;;;2.83;2.20;;;28.90;99.90;;;;;;4990239;28;20215;-90
2022/08/03 09:09:10;;;;;;;2.72;2.20;;;29.00;99.90;;;;;;4997633;28;20195;-90
2022/08/03 09:11:45;;;;;;;2.92;2.28;;;29.20;99.90;;;;;;4977898;28;20204;-90
2022/08/03 09:14:13;;;;;;;4.00;2.10;;;29.40;99.90;;;;;;4978578;28;20183;-90
2022/08/03 09:17:02;;;;;;;3.35;2.20;;;29.50;99.90;;;;;;4972728;28;20193;-91
2022/08/03 09:19:34;;;;;;;2.40;2.17;;;29.70;99.90;;;;;;5006192;28;20180;-91
2022/08/03 09:22:15;;;;;;;2.20;2.10;;;29.80;99.90;;;;;;4991844;28;20227;-91
2022/08/03 09:25:17;;;;;;;2.15;1.90;;;30.10;99.90;;;;;;4979004;28;20202;-91
2022/08/03 09:27:49;;;;;;;2.25;2.05;;;30.10;99.90;;;;;;4994546;28;20183;-91
2022/08/03 09:30:17;;;;;;;1.92;1.83;;;30.30;99.90;;;;;;4998358;28;20191;-90
2022/08/03 09:32:44;;;;;;;2.20;2.00;;;30.60;99.90;;;;;;4999248;28;20179;-91
2022/08/03 09:35:27;;;;;;;2.55;2.38;;;30.80;99.90;;;;;;4998898;28;20176;-91
2022/08/03 09:38:27;;;;;;;4.20;2.20;;;30.70;99.90;;;;;;4999145;28;20199;-90
2022/08/03 09:40:55;;;;;;;2.38;2.17;;;30.80;99.90;;;;;;4983191;28;20203;-91
2022/08/03 09:43:26;;;;;;;3.72;2.00;;;30.90;99.90;;;;;;4995515;28;20235;-91
2022/08/03 09:46:03;;;;;;;3.90;1.80;;;31.00;99.90;;;;;;4982777;28;20196;-91
2022/08/03 09:48:36;;;;;;;2.22;2.00;;;31.00;99.90;;;;;;4980331;28;20194;-91
2022/08/03 09:51:04;;;;;;;2.20;2.00;;;31.00;99.80;;;;;;5012585;28;20266;-91
2022/08/03 09:53:44;;;;;;;2.00;1.90;;;31.20;99.90;;;;;;4990535;28;20199;-91
2022/08/03 09:56:50;;;;;;;1.67;1.58;;;31.20;97.60;;;;;;4986084;28;20183;-91
2022/08/03 09:59:28;;;;;;;1.90;1.77;;;31.30;98.60;;;;;;4999465;28;20179;-91
2022/08/03 10:01:58;;;;;;;2.22;1.80;;;31.60;97.50;;;;;;4985633;28;20508;-91
2022/08/03 10:04:25;;;;;;;2.03;1.80;;;31.60;96.80;;;;;;5013227;28;20262;-91
2022/08/03 10:07:09;;;;;;;2.85;1.42;;;31.50;95.90;;;;;;4998831;28;20208;-91
2022/08/03 10:09:37;;;;;;;2.67;1.80;;;31.80;96.90;;;;;;4996680;28;20188;-91
2022/08/03 10:12:27;;;;;;;2.50;1.60;;;32.00;96.00;;;;;;4997927;28;20202;-92
2022/08/03 10:14:54;;;;;;;3.15;1.95;;;32.00;96.10;;;;;;4982437;28;20268;-91
2022/08/03 10:17:29;;;;;;;2.72;2.00;;;32.10;94.90;;;;;;4982701;28;20235;-91
2022/08/03 10:20:16;;;;;;;2.47;1.58;;;32.20;95.70;;;;;;4981894;28;20194;-91
2022/08/03 10:23:13;;;;;;;1.70;1.60;;;32.40;94.50;;;;;;4998651;28;20172;-91
2022/08/03 10:25:40;;;;;;;2.55;1.98;;;32.50;93.70;;;;;;4982634;28;20179;-92
2022/08/03 10:28:08;;;;;;;1.88;1.77;;;32.50;92.70;;;;;;4982471;28;20184;-91
2022/08/03 10:30:37;;;;;;;1.60;1.50;;;32.30;92.20;;;;;;4982063;28;20298;-88
2022/08/03 10:33:15;;;;;;;1.80;1.70;;;32.50;92.00;;;;;;4982653;28;20187;-88
2022/08/03 10:35:43;;;;;;;3.47;2.00;;;32.40;92.80;;;;;;4982668;28;20187;-91
2022/08/03 10:38:15;;;;;;;3.53;1.98;;;32.30;93.30;;;;;;4982358;28;20262;-91
2022/08/03 10:40:42;;;;;;;3.13;1.83;;;32.20;93.10;;;;;;4979942;28;20207;-90
2022/08/03 10:43:17;;;;;;;1.98;1.70;;;32.20;93.10;;;;;;4980987;28;20206;-88
2022/08/03 10:45:45;;;;;;;2.83;1.90;;;32.40;93.60;;;;;;4979613;28;20175;-88
2022/08/03 10:48:15;;;;;;;2.38;2.15;;;32.50;93.50;;;;;;4979279;28;20180;-91
2022/08/03 10:50:43;;;;;;;2.20;2.00;;;32.70;93.10;;;;;;4976220;28;20240;-90
2022/08/03 10:53:09;;;;;;;2.25;2.00;;;32.70;92.90;;;;;;4975619;28;20235;-90
2022/08/03 10:58:37;;;;;;;1.98;1.88;;;32.70;92.40;;;;;;4987860;28;20178;-90
2022/08/03 11:01:11;;;;;;;2.38;1.80;;;32.90;92.50;;;;;;4991195;28;20215;-91
2022/08/03 11:04:06;;;;;;;1.92;1.83;;;33.10;92.30;;;;;;4994960;28;20183;-91
2022/08/03 11:06:32;;;;;;;2.10;1.70;;;33.00;91.80;;;;;;4994762;28;20295;-90
2022/08/03 11:09:10;;;;;;;3.17;2.15;;;33.00;91.70;;;;;;4994029;28;20211;-90
2022/08/03 11:11:36;;;;;;;1.90;1.80;;;32.90;91.30;;;;;;4996383;28;20204;-90
2022/08/03 11:14:09;;;;;;;3.20;1.90;;;33.00;91.70;;;;;;4995275;28;20234;-90
2022/08/03 11:16:37;;;;;;;2.03;1.80;;;33.10;91.40;;;;;;5012127;28;20202;-90
2022/08/03 11:19:08;;;;;;;1.70;1.60;;;32.90;91.70;;;;;;4995280;28;20192;-91
2022/08/03 11:21:49;;;;;;;2.92;1.85;;;33.10;92.10;;;;;;4994887;28;20216;-91
2022/08/03 11:24:50;;;;;;;2.25;2.13;;;33.40;92.70;;;;;;4994676;28;20183;-91
2022/08/03 11:27:21;;;;;;;2.08;1.92;;;33.40;90.70;;;;;;4994616;28;20212;-92
2022/08/03 11:30:05;;;;;;;1.83;1.73;;;33.40;91.10;;;;;;4990731;28;20183;-92
2022/08/03 11:32:37;;;;;;;1.77;1.67;;;33.80;90.90;;;;;;4974774;28;20236;-90
2022/08/03 11:35:11;;;;;;;2.45;1.75;;;34.00;90.40;;;;;;4983380;28;20275;-91
2022/08/03 11:37:53;;;;;;;2.97;1.75;;;34.20;90.40;;;;;;4994148;28;20191;-91
2022/08/03 11:43:46;;;;;;;2.00;1.70;;;34.50;90.00;;;;;;4993256;28;20206;-91
2022/08/03 11:46:16;;;;;;;2.55;1.88;;;34.40;88.70;;;;;;4987700;28;20279;-92
2022/08/03 11:49:06;;;;;;;1.75;1.65;;;34.40;90.10;;;;;;4988519;28;20204;-90
2022/08/03 11:51:33;;;;;;;1.75;1.65;;;34.80;90.50;;;;;;4983368;28;20204;-90
2022/08/03 11:54:10;;;;;;;1.90;1.80;;;34.90;87.90;;;;;;4974513;28;20208;-91
2022/08/03 11:56:45;;;;;;;1.90;1.80;;;35.10;87.30;;;;;;4974849;28;20180;-90
2022/08/03 11:59:11;;;;;;;2.58;1.83;;;35.10;87.40;;;;;;4982005;28;20266;-91
2022/08/03 12:01:38;;;;;;;1.65;1.55;;;35.20;88.90;;;;;;4977567;28;20212;-91
2022/08/03 12:04:05;;;;;;;2.00;1.90;;;35.20;88.70;;;;;;4977262;28;20215;-90
2022/08/03 12:06:53;;;;;;;1.77;1.67;;;35.50;88.50;;;;;;4976079;28;20291;-92
2022/08/03 12:09:23;;;;;;;2.95;1.50;;;35.60;89.00;;;;;;4979131;28;20210;-91
2022/08/03 12:12:13;;;;;;;2.22;1.85;;;35.80;87.20;;;;;;4976850;28;20196;-90
2022/08/03 12:14:46;;;;;;;2.38;1.70;;;35.80;85.60;;;;;;4993380;28;20172;-90
2022/08/03 12:17:12;;;;;;;1.90;1.80;;;35.60;84.70;;;;;;4987877;28;20184;-90
2022/08/03 12:19:42;;;;;;;1.75;1.63;;;35.50;85.80;;;;;;4977199;28;20184;-90
2022/08/03 12:22:08;;;;;;;1.90;1.80;;;35.30;85.40;;;;;;4976621;28;20212;-90
2022/08/03 12:24:44;;;;;;;2.03;1.90;;;35.40;86.50;;;;;;4977281;28;20188;-90
2022/08/03 12:27:10;;;;;;;2.00;1.90;;;35.50;88.50;;;;;;4977148;28;20184;-90
2022/08/03 12:29:36;;;;;;;1.90;1.80;;;35.70;86.20;;;;;;4988934;28;20212;-92
2022/08/03 12:32:04;;;;;;;2.28;1.80;;;35.90;86.70;;;;;;4989523;28;20200;-94
2022/08/03 12:34:47;;;;;;;3.45;1.73;;;36.00;86.20;;;;;;4976284;28;20272;-89
2022/08/03 12:37:21;;;;;;;2.85;2.00;;;35.90;86.30;;;;;;4964655;28;20187;-90
2022/08/03 12:39:53;;;;;;;1.88;1.70;;;35.70;85.60;;;;;;4988830;28;20183;-90
2022/08/03 12:42:19;;;;;;;1.80;1.70;;;35.70;87.00;;;;;;4987463;28;20205;-90
2022/08/03 12:44:47;;;;;;;1.95;1.85;;;36.00;85.50;;;;;;4993201;28;20196;-90
2022/08/03 12:47:14;;;;;;;2.00;1.90;;;36.00;84.10;;;;;;4992245;28;20226;-90
2022/08/03 12:49:52;;;;;;;2.45;1.85;;;35.80;83.30;;;;;;4988789;28;20180;-90
2022/08/03 12:52:43;;;;;;;1.92;1.83;;;35.70;84.50;;;;;;4982756;28;20226;-90
2022/08/03 12:55:32;;;;;;;2.08;1.88;;;35.70;84.70;;;;;;4975112;28;20188;-91
2022/08/03 12:58:09;;;;;;;2.17;1.85;;;35.80;85.20;;;;;;4991342;28;20207;-90
2022/08/03 13:00:36;;;;;;;2.30;1.83;;;35.90;83.90;;;;;;4990034;28;20233;-90
2022/08/03 13:03:06;;;;;;;2.55;1.80;;;36.20;83.40;;;;;;4975087;28;20180;-90
2022/08/03 13:05:43;;;;;;;2.60;1.80;;;36.40;81.90;;;;;;4997325;28;20270;-89
2022/08/03 13:08:24;;;;;;;2.53;1.65;;;36.40;81.10;;;;;;4975408;28;20179;-89
2022/08/03 13:10:51;;;;;;;2.08;1.67;;;36.60;82.00;;;;;;4975529;28;20677;-90
2022/08/03 13:13:39;;;;;;;1.98;1.85;;;36.70;82.10;;;;;;4976930;28;20179;-90
2022/08/03 13:16:27;;;;;;;3.15;2.05;;;36.90;81.40;;;;;;4976190;28;20208;-91
2022/08/03 13:18:55;;;;;;;1.77;1.67;;;36.50;79.00;;;;;;4993224;28;20176;-91
2022/08/03 13:21:21;;;;;;;2.05;1.95;;;36.40;80.30;;;;;;4987633;28;20219;-91